sensor_id;sensor_type;location;lat;lon;timestamp;P1;durP1;ratioP1;P2;durP2;ratioP2
62582;SDS011;48641;51.676;5.808;2023-11-18T00:02:22;8.55;;;3.88;;
62582;SDS011;48641;51.676;5.808;2023-11-18T00:04:49;8.93;;;4.13;;
62582;SDS011;48641;51.676;5.808;2023-11-18T00:07:16;8.40;;;4.03;;
62582;SDS011;48641;51.676;5.808;2023-11-18T00:09:42;8.65;;;4.00;;
62582;SDS011;48641;51.676;5.808;2023-11-18T00:12:10;7.85;;;3.80;;
62582;SDS011;48641;51.676;5.808;2023-11-18T00:14:37;8.52;;;4.28;;
62582;SDS011;48641;51.676;5.808;2023-11-18T00:17:02;9.85;;;3.88;;
62582;SDS011;48641;51.676;5.808;2023-11-18T00:19:29;8.25;;;4.35;;
62582;SDS011;48641;51.676;5.808;2023-11-18T00:21:55;8.13;;;4.30;;
62582;SDS011;48641;51.676;5.808;2023-11-18T00:24:20;9.20;;;3.88;;
62582;SDS011;48641;51.676;5.808;2023-11-18T00:26:46;9.55;;;4.20;;
62582;SDS011;48641;51.676;5.808;2023-11-18T00:29:12;8.45;;;4.00;;
62582;SDS011;48641;51.676;5.808;2023-11-18T00:31:37;9.52;;;4.40;;
62582;SDS011;48641;51.676;5.808;2023-11-18T00:34:03;9.05;;;4.63;;
62582;SDS011;48641;51.676;5.808;2023-11-18T00:36:28;8.63;;;3.88;;
62582;SDS011;48641;51.676;5.808;2023-11-18T00:38:54;8.77;;;4.07;;
62582;SDS011;48641;51.676;5.808;2023-11-18T00:41:20;9.20;;;4.20;;
62582;SDS011;48641;51.676;5.808;2023-11-18T00:43:46;9.38;;;4.07;;
62582;SDS011;48641;51.676;5.808;2023-11-18T00:46:11;9.38;;;4.30;;
62582;SDS011;48641;51.676;5.808;2023-11-18T00:48:37;8.30;;;3.72;;
62582;SDS011;48641;51.676;5.808;2023-11-18T00:51:03;9.23;;;4.07;;
62582;SDS011;48641;51.676;5.808;2023-11-18T00:53:31;9.07;;;4.18;;
62582;SDS011;48641;51.676;5.808;2023-11-18T00:55:56;8.93;;;3.85;;
62582;SDS011;48641;51.676;5.808;2023-11-18T00:58:22;9.25;;;4.30;;
62582;SDS011;48641;51.676;5.808;2023-11-18T01:00:48;7.90;;;3.78;;
62582;SDS011;48641;51.676;5.808;2023-11-18T01:03:13;7.85;;;3.80;;
62582;SDS011;48641;51.676;5.808;2023-11-18T01:05:39;8.10;;;4.03;;
62582;SDS011;48641;51.676;5.808;2023-11-18T01:08:04;8.38;;;3.85;;
62582;SDS011;48641;51.676;5.808;2023-11-18T01:10:30;9.13;;;4.20;;
62582;SDS011;48641;51.676;5.808;2023-11-18T01:12:56;8.95;;;4.10;;
62582;SDS011;48641;51.676;5.808;2023-11-18T01:15:22;7.72;;;3.92;;
62582;SDS011;48641;51.676;5.808;2023-11-18T01:17:48;7.90;;;3.95;;
62582;SDS011;48641;51.676;5.808;2023-11-18T01:20:14;8.63;;;3.88;;
62582;SDS011;48641;51.676;5.808;2023-11-18T01:22:45;8.25;;;4.15;;
62582;SDS011;48641;51.676;5.808;2023-11-18T01:25:12;8.38;;;4.07;;
62582;SDS011;48641;51.676;5.808;2023-11-18T01:27:37;8.00;;;3.80;;
62582;SDS011;48641;51.676;5.808;2023-11-18T01:30:05;8.23;;;3.75;;
62582;SDS011;48641;51.676;5.808;2023-11-18T01:32:31;9.02;;;3.85;;
62582;SDS011;48641;51.676;5.808;2023-11-18T01:34:56;9.80;;;4.38;;
62582;SDS011;48641;51.676;5.808;2023-11-18T01:37:22;8.60;;;4.10;;
62582;SDS011;48641;51.676;5.808;2023-11-18T01:39:49;9.02;;;4.13;;
62582;SDS011;48641;51.676;5.808;2023-11-18T01:42:15;8.10;;;3.65;;
62582;SDS011;48641;51.676;5.808;2023-11-18T01:44:40;7.80;;;3.88;;
62582;SDS011;48641;51.676;5.808;2023-11-18T01:47:06;8.80;;;3.95;;
62582;SDS011;48641;51.676;5.808;2023-11-18T01:54:32;8.25;;;3.78;;
62582;SDS011;48641;51.676;5.808;2023-11-18T01:56:59;8.98;;;4.53;;
62582;SDS011;48641;51.676;5.808;2023-11-18T01:59:28;8.05;;;3.78;;
62582;SDS011;48641;51.676;5.808;2023-11-18T02:01:55;7.95;;;3.72;;
62582;SDS011;48641;51.676;5.808;2023-11-18T02:04:24;7.40;;;3.70;;
62582;SDS011;48641;51.676;5.808;2023-11-18T02:06:50;8.00;;;3.90;;
62582;SDS011;48641;51.676;5.808;2023-11-18T02:09:17;8.35;;;3.88;;
62582;SDS011;48641;51.676;5.808;2023-11-18T02:11:59;8.13;;;4.05;;
62582;SDS011;48641;51.676;5.808;2023-11-18T02:14:34;8.95;;;3.90;;
62582;SDS011;48641;51.676;5.808;2023-11-18T02:17:05;8.10;;;4.05;;
62582;SDS011;48641;51.676;5.808;2023-11-18T02:19:34;7.88;;;3.83;;
62582;SDS011;48641;51.676;5.808;2023-11-18T02:22:00;8.20;;;3.88;;
62582;SDS011;48641;51.676;5.808;2023-11-18T02:24:33;8.30;;;3.95;;
62582;SDS011;48641;51.676;5.808;2023-11-18T02:27:02;9.05;;;4.05;;
62582;SDS011;48641;51.676;5.808;2023-11-18T02:29:34;8.73;;;4.28;;
62582;SDS011;48641;51.676;5.808;2023-11-18T02:35:05;8.27;;;3.90;;
62582;SDS011;48641;51.676;5.808;2023-11-18T02:37:50;7.50;;;3.65;;
62582;SDS011;48641;51.676;5.808;2023-11-18T02:40:20;8.63;;;3.97;;
62582;SDS011;48641;51.676;5.808;2023-11-18T02:42:57;7.57;;;3.60;;
62582;SDS011;48641;51.676;5.808;2023-11-18T02:45:24;8.13;;;3.90;;
62582;SDS011;48641;51.676;5.808;2023-11-18T02:47:52;8.02;;;3.60;;
62582;SDS011;48641;51.676;5.808;2023-11-18T02:50:22;7.72;;;3.50;;
62582;SDS011;48641;51.676;5.808;2023-11-18T02:52:52;7.65;;;3.80;;
62582;SDS011;48641;51.676;5.808;2023-11-18T02:55:18;7.90;;;4.00;;
62582;SDS011;48641;51.676;5.808;2023-11-18T02:57:46;7.05;;;3.30;;
62582;SDS011;48641;51.676;5.808;2023-11-18T03:00:12;9.05;;;3.70;;
62582;SDS011;48641;51.676;5.808;2023-11-18T03:02:42;7.93;;;4.10;;
62582;SDS011;48641;51.676;5.808;2023-11-18T03:05:08;8.13;;;3.55;;
62582;SDS011;48641;51.676;5.808;2023-11-18T03:07:36;7.28;;;3.80;;
62582;SDS011;48641;51.676;5.808;2023-11-18T03:10:03;7.93;;;3.70;;
62582;SDS011;48641;51.676;5.808;2023-11-18T03:12:34;7.28;;;3.58;;
62582;SDS011;48641;51.676;5.808;2023-11-18T03:15:00;8.00;;;3.40;;
62582;SDS011;48641;51.676;5.808;2023-11-18T03:17:26;7.45;;;3.65;;
62582;SDS011;48641;51.676;5.808;2023-11-18T03:19:53;8.45;;;3.63;;
62582;SDS011;48641;51.676;5.808;2023-11-18T03:22:19;8.02;;;3.70;;
62582;SDS011;48641;51.676;5.808;2023-11-18T03:24:44;7.97;;;3.67;;
62582;SDS011;48641;51.676;5.808;2023-11-18T03:27:10;7.07;;;3.50;;
62582;SDS011;48641;51.676;5.808;2023-11-18T03:29:35;8.88;;;3.90;;
62582;SDS011;48641;51.676;5.808;2023-11-18T03:32:01;8.52;;;4.00;;
62582;SDS011;48641;51.676;5.808;2023-11-18T03:34:28;7.10;;;3.42;;
62582;SDS011;48641;51.676;5.808;2023-11-18T03:36:54;7.55;;;3.58;;
62582;SDS011;48641;51.676;5.808;2023-11-18T03:39:21;8.00;;;3.83;;
62582;SDS011;48641;51.676;5.808;2023-11-18T03:41:47;8.52;;;3.97;;
62582;SDS011;48641;51.676;5.808;2023-11-18T03:44:14;8.40;;;3.85;;
62582;SDS011;48641;51.676;5.808;2023-11-18T03:46:40;7.32;;;3.72;;
62582;SDS011;48641;51.676;5.808;2023-11-18T03:49:06;8.63;;;4.10;;
62582;SDS011;48641;51.676;5.808;2023-11-18T03:51:31;7.72;;;3.92;;
62582;SDS011;48641;51.676;5.808;2023-11-18T03:53:57;8.48;;;3.97;;
62582;SDS011;48641;51.676;5.808;2023-11-18T03:56:23;8.30;;;3.90;;
62582;SDS011;48641;51.676;5.808;2023-11-18T03:58:48;7.50;;;3.83;;
62582;SDS011;48641;51.676;5.808;2023-11-18T04:01:23;7.60;;;3.50;;
62582;SDS011;48641;51.676;5.808;2023-11-18T04:03:52;7.33;;;3.60;;
62582;SDS011;48641;51.676;5.808;2023-11-18T04:06:18;8.18;;;3.90;;
62582;SDS011;48641;51.676;5.808;2023-11-18T04:08:46;9.47;;;4.17;;
62582;SDS011;48641;51.676;5.808;2023-11-18T04:11:12;8.30;;;4.30;;
62582;SDS011;48641;51.676;5.808;2023-11-18T04:13:42;7.50;;;3.80;;
62582;SDS011;48641;51.676;5.808;2023-11-18T04:16:15;7.93;;;3.83;;
62582;SDS011;48641;51.676;5.808;2023-11-18T04:18:43;8.55;;;3.85;;
62582;SDS011;48641;51.676;5.808;2023-11-18T04:21:09;8.95;;;4.18;;
62582;SDS011;48641;51.676;5.808;2023-11-18T04:23:41;8.07;;;3.40;;
62582;SDS011;48641;51.676;5.808;2023-11-18T04:26:07;8.18;;;3.80;;
62582;SDS011;48641;51.676;5.808;2023-11-18T04:28:34;8.80;;;4.38;;
62582;SDS011;48641;51.676;5.808;2023-11-18T04:31:00;7.75;;;3.88;;
62582;SDS011;48641;51.676;5.808;2023-11-18T04:33:26;7.75;;;4.18;;
62582;SDS011;48641;51.676;5.808;2023-11-18T04:35:52;7.43;;;3.53;;
62582;SDS011;48641;51.676;5.808;2023-11-18T04:38:17;8.50;;;3.92;;
62582;SDS011;48641;51.676;5.808;2023-11-18T04:40:43;8.13;;;3.67;;
62582;SDS011;48641;51.676;5.808;2023-11-18T04:43:10;8.52;;;4.35;;
62582;SDS011;48641;51.676;5.808;2023-11-18T04:45:36;7.88;;;3.90;;
62582;SDS011;48641;51.676;5.808;2023-11-18T04:48:03;7.95;;;3.50;;
62582;SDS011;48641;51.676;5.808;2023-11-18T04:50:29;9.00;;;3.83;;
62582;SDS011;48641;51.676;5.808;2023-11-18T04:52:55;8.73;;;3.80;;
62582;SDS011;48641;51.676;5.808;2023-11-18T04:55:21;8.25;;;3.90;;
62582;SDS011;48641;51.676;5.808;2023-11-18T04:57:47;8.68;;;3.60;;
62582;SDS011;48641;51.676;5.808;2023-11-18T05:00:12;6.78;;;3.33;;
62582;SDS011;48641;51.676;5.808;2023-11-18T05:05:08;7.45;;;3.50;;
62582;SDS011;48641;51.676;5.808;2023-11-18T05:07:34;8.02;;;3.65;;
62582;SDS011;48641;51.676;5.808;2023-11-18T05:10:00;7.53;;;3.67;;
62582;SDS011;48641;51.676;5.808;2023-11-18T05:12:26;8.75;;;3.88;;
62582;SDS011;48641;51.676;5.808;2023-11-18T05:14:54;7.82;;;3.35;;
62582;SDS011;48641;51.676;5.808;2023-11-18T05:17:23;7.00;;;3.30;;
62582;SDS011;48641;51.676;5.808;2023-11-18T05:19:48;6.85;;;3.50;;
62582;SDS011;48641;51.676;5.808;2023-11-18T05:22:14;7.78;;;3.78;;
62582;SDS011;48641;51.676;5.808;2023-11-18T05:24:40;7.55;;;3.50;;
62582;SDS011;48641;51.676;5.808;2023-11-18T05:27:06;7.57;;;3.70;;
62582;SDS011;48641;51.676;5.808;2023-11-18T05:29:32;8.38;;;3.72;;
62582;SDS011;48641;51.676;5.808;2023-11-18T05:31:58;7.45;;;3.38;;
62582;SDS011;48641;51.676;5.808;2023-11-18T05:34:24;7.70;;;3.80;;
62582;SDS011;48641;51.676;5.808;2023-11-18T05:36:49;7.75;;;3.58;;
62582;SDS011;48641;51.676;5.808;2023-11-18T05:39:19;7.30;;;3.42;;
62582;SDS011;48641;51.676;5.808;2023-11-18T05:41:49;7.40;;;3.72;;
62582;SDS011;48641;51.676;5.808;2023-11-18T05:44:16;7.68;;;3.67;;
62582;SDS011;48641;51.676;5.808;2023-11-18T05:46:44;7.50;;;3.83;;
62582;SDS011;48641;51.676;5.808;2023-11-18T05:49:16;8.10;;;3.92;;
62582;SDS011;48641;51.676;5.808;2023-11-18T05:51:43;8.40;;;3.88;;
62582;SDS011;48641;51.676;5.808;2023-11-18T05:54:09;8.48;;;3.63;;
62582;SDS011;48641;51.676;5.808;2023-11-18T05:56:35;8.45;;;3.83;;
62582;SDS011;48641;51.676;5.808;2023-11-18T05:59:01;8.73;;;3.78;;
62582;SDS011;48641;51.676;5.808;2023-11-18T06:01:28;8.32;;;3.70;;
62582;SDS011;48641;51.676;5.808;2023-11-18T06:03:54;6.97;;;3.28;;
62582;SDS011;48641;51.676;5.808;2023-11-18T06:06:21;6.82;;;3.40;;
62582;SDS011;48641;51.676;5.808;2023-11-18T06:08:47;7.75;;;3.20;;
62582;SDS011;48641;51.676;5.808;2023-11-18T06:11:13;6.80;;;3.53;;
62582;SDS011;48641;51.676;5.808;2023-11-18T06:13:40;7.70;;;3.78;;
62582;SDS011;48641;51.676;5.808;2023-11-18T06:16:19;8.68;;;3.90;;
62582;SDS011;48641;51.676;5.808;2023-11-18T06:18:46;7.63;;;3.60;;
62582;SDS011;48641;51.676;5.808;2023-11-18T06:21:16;6.82;;;3.50;;
62582;SDS011;48641;51.676;5.808;2023-11-18T06:23:45;7.85;;;3.38;;
62582;SDS011;48641;51.676;5.808;2023-11-18T06:26:12;8.05;;;3.50;;
62582;SDS011;48641;51.676;5.808;2023-11-18T06:28:40;7.63;;;3.58;;
62582;SDS011;48641;51.676;5.808;2023-11-18T06:31:06;7.82;;;3.42;;
62582;SDS011;48641;51.676;5.808;2023-11-18T06:33:43;7.35;;;3.35;;
62582;SDS011;48641;51.676;5.808;2023-11-18T06:38:38;7.53;;;3.53;;
62582;SDS011;48641;51.676;5.808;2023-11-18T06:41:05;6.93;;;3.15;;
62582;SDS011;48641;51.676;5.808;2023-11-18T06:43:36;7.68;;;3.15;;
62582;SDS011;48641;51.676;5.808;2023-11-18T06:46:32;6.85;;;3.55;;
62582;SDS011;48641;51.676;5.808;2023-11-18T06:49:04;6.38;;;3.00;;
62582;SDS011;48641;51.676;5.808;2023-11-18T06:51:34;7.72;;;3.20;;
62582;SDS011;48641;51.676;5.808;2023-11-18T06:54:00;9.43;;;3.80;;
62582;SDS011;48641;51.676;5.808;2023-11-18T06:56:39;7.57;;;3.45;;
62582;SDS011;48641;51.676;5.808;2023-11-18T06:59:07;7.03;;;3.17;;
62582;SDS011;48641;51.676;5.808;2023-11-18T07:01:37;6.97;;;3.42;;
62582;SDS011;48641;51.676;5.808;2023-11-18T07:04:08;6.60;;;3.15;;
62582;SDS011;48641;51.676;5.808;2023-11-18T07:06:34;7.38;;;3.40;;
62582;SDS011;48641;51.676;5.808;2023-11-18T07:09:03;6.50;;;3.10;;
62582;SDS011;48641;51.676;5.808;2023-11-18T07:11:34;7.45;;;3.22;;
62582;SDS011;48641;51.676;5.808;2023-11-18T07:14:00;7.00;;;3.50;;
62582;SDS011;48641;51.676;5.808;2023-11-18T07:16:25;6.93;;;3.22;;
62582;SDS011;48641;51.676;5.808;2023-11-18T07:18:51;6.82;;;3.28;;
62582;SDS011;48641;51.676;5.808;2023-11-18T07:21:18;6.05;;;2.90;;
62582;SDS011;48641;51.676;5.808;2023-11-18T07:23:44;5.57;;;3.03;;
62582;SDS011;48641;51.676;5.808;2023-11-18T07:26:09;6.75;;;2.85;;
62582;SDS011;48641;51.676;5.808;2023-11-18T07:28:35;6.43;;;3.00;;
62582;SDS011;48641;51.676;5.808;2023-11-18T07:31:01;8.43;;;2.90;;
62582;SDS011;48641;51.676;5.808;2023-11-18T07:33:29;6.25;;;3.05;;
62582;SDS011;48641;51.676;5.808;2023-11-18T07:35:58;6.90;;;2.90;;
62582;SDS011;48641;51.676;5.808;2023-11-18T07:38:24;6.32;;;2.92;;
62582;SDS011;48641;51.676;5.808;2023-11-18T07:40:51;6.15;;;2.63;;
62582;SDS011;48641;51.676;5.808;2023-11-18T07:43:21;5.93;;;2.85;;
62582;SDS011;48641;51.676;5.808;2023-11-18T07:45:47;6.38;;;2.55;;
62582;SDS011;48641;51.676;5.808;2023-11-18T07:48:18;6.72;;;2.75;;
62582;SDS011;48641;51.676;5.808;2023-11-18T07:50:45;6.75;;;2.83;;
62582;SDS011;48641;51.676;5.808;2023-11-18T07:53:15;6.90;;;3.00;;
62582;SDS011;48641;51.676;5.808;2023-11-18T07:55:43;6.10;;;2.90;;
62582;SDS011;48641;51.676;5.808;2023-11-18T07:58:09;7.65;;;3.05;;
62582;SDS011;48641;51.676;5.808;2023-11-18T08:00:39;6.13;;;2.70;;
62582;SDS011;48641;51.676;5.808;2023-11-18T08:03:08;6.35;;;2.88;;
62582;SDS011;48641;51.676;5.808;2023-11-18T08:05:42;6.63;;;2.60;;
62582;SDS011;48641;51.676;5.808;2023-11-18T08:08:12;6.57;;;2.95;;
62582;SDS011;48641;51.676;5.808;2023-11-18T08:10:39;5.80;;;2.67;;
62582;SDS011;48641;51.676;5.808;2023-11-18T08:13:09;7.28;;;2.70;;
62582;SDS011;48641;51.676;5.808;2023-11-18T08:15:38;6.38;;;2.60;;
62582;SDS011;48641;51.676;5.808;2023-11-18T08:20:31;6.65;;;2.85;;
62582;SDS011;48641;51.676;5.808;2023-11-18T08:22:57;6.97;;;2.70;;
62582;SDS011;48641;51.676;5.808;2023-11-18T08:25:22;6.03;;;2.47;;
62582;SDS011;48641;51.676;5.808;2023-11-18T08:27:48;7.07;;;2.83;;
62582;SDS011;48641;51.676;5.808;2023-11-18T08:30:14;5.53;;;2.40;;
62582;SDS011;48641;51.676;5.808;2023-11-18T08:32:43;6.65;;;2.28;;
62582;SDS011;48641;51.676;5.808;2023-11-18T08:35:10;5.78;;;2.40;;
62582;SDS011;48641;51.676;5.808;2023-11-18T08:37:38;8.10;;;3.08;;
62582;SDS011;48641;51.676;5.808;2023-11-18T08:40:05;6.38;;;2.72;;
62582;SDS011;48641;51.676;5.808;2023-11-18T08:42:33;5.80;;;2.45;;
62582;SDS011;48641;51.676;5.808;2023-11-18T08:45:00;6.13;;;2.35;;
62582;SDS011;48641;51.676;5.808;2023-11-18T08:47:26;5.25;;;2.13;;
62582;SDS011;48641;51.676;5.808;2023-11-18T08:49:52;6.72;;;2.85;;
62582;SDS011;48641;51.676;5.808;2023-11-18T08:52:18;6.18;;;2.38;;
62582;SDS011;48641;51.676;5.808;2023-11-18T08:54:44;6.00;;;2.80;;
62582;SDS011;48641;51.676;5.808;2023-11-18T08:57:28;6.80;;;2.45;;
62582;SDS011;48641;51.676;5.808;2023-11-18T09:00:13;5.97;;;2.50;;
62582;SDS011;48641;51.676;5.808;2023-11-18T09:03:00;8.20;;;2.50;;
62582;SDS011;48641;51.676;5.808;2023-11-18T09:05:26;6.38;;;2.03;;
62582;SDS011;48641;51.676;5.808;2023-11-18T09:07:56;13.32;;;3.35;;
62582;SDS011;48641;51.676;5.808;2023-11-18T09:10:23;22.20;;;4.07;;
62582;SDS011;48641;51.676;5.808;2023-11-18T09:12:49;12.75;;;3.22;;
62582;SDS011;48641;51.676;5.808;2023-11-18T09:15:14;14.60;;;3.15;;
62582;SDS011;48641;51.676;5.808;2023-11-18T09:17:47;21.23;;;3.88;;
62582;SDS011;48641;51.676;5.808;2023-11-18T09:20:17;12.55;;;3.28;;
62582;SDS011;48641;51.676;5.808;2023-11-18T09:22:47;13.60;;;3.40;;
62582;SDS011;48641;51.676;5.808;2023-11-18T09:25:13;12.60;;;3.28;;
62582;SDS011;48641;51.676;5.808;2023-11-18T09:27:39;12.75;;;3.30;;
62582;SDS011;48641;51.676;5.808;2023-11-18T09:30:05;18.88;;;3.47;;
62582;SDS011;48641;51.676;5.808;2023-11-18T09:32:42;9.48;;;3.25;;
62582;SDS011;48641;51.676;5.808;2023-11-18T09:35:10;9.82;;;3.38;;
62582;SDS011;48641;51.676;5.808;2023-11-18T09:37:38;11.40;;;2.78;;
62582;SDS011;48641;51.676;5.808;2023-11-18T09:40:05;11.43;;;2.88;;
62582;SDS011;48641;51.676;5.808;2023-11-18T09:42:36;14.18;;;2.47;;
62582;SDS011;48641;51.676;5.808;2023-11-18T09:45:04;10.77;;;2.75;;
62582;SDS011;48641;51.676;5.808;2023-11-18T09:47:38;10.48;;;3.88;;
62582;SDS011;48641;51.676;5.808;2023-11-18T09:50:08;11.20;;;3.08;;
62582;SDS011;48641;51.676;5.808;2023-11-18T09:52:37;9.82;;;2.85;;
62582;SDS011;48641;51.676;5.808;2023-11-18T09:55:09;9.20;;;3.22;;
62582;SDS011;48641;51.676;5.808;2023-11-18T09:57:44;10.30;;;3.20;;
62582;SDS011;48641;51.676;5.808;2023-11-18T10:00:22;9.10;;;2.78;;
62582;SDS011;48641;51.676;5.808;2023-11-18T10:02:57;10.27;;;2.80;;
62582;SDS011;48641;51.676;5.808;2023-11-18T10:05:25;8.75;;;2.70;;
62582;SDS011;48641;51.676;5.808;2023-11-18T10:07:52;8.40;;;2.65;;
62582;SDS011;48641;51.676;5.808;2023-11-18T10:10:21;7.22;;;2.50;;
62582;SDS011;48641;51.676;5.808;2023-11-18T10:12:47;9.00;;;2.78;;
62582;SDS011;48641;51.676;5.808;2023-11-18T10:15:25;8.50;;;2.45;;
62582;SDS011;48641;51.676;5.808;2023-11-18T10:17:52;9.32;;;2.42;;
62582;SDS011;48641;51.676;5.808;2023-11-18T10:20:50;8.05;;;2.25;;
62582;SDS011;48641;51.676;5.808;2023-11-18T10:23:17;8.13;;;2.22;;
62582;SDS011;48641;51.676;5.808;2023-11-18T10:30:58;8.23;;;2.30;;
62582;SDS011;48641;51.676;5.808;2023-11-18T10:33:34;7.40;;;2.33;;
62582;SDS011;48641;51.676;5.808;2023-11-18T10:36:01;7.25;;;2.50;;
62582;SDS011;48641;51.676;5.808;2023-11-18T10:38:30;8.55;;;2.42;;
62582;SDS011;48641;51.676;5.808;2023-11-18T10:40:57;9.00;;;2.40;;
62582;SDS011;48641;51.676;5.808;2023-11-18T10:43:26;6.85;;;2.22;;
62582;SDS011;48641;51.676;5.808;2023-11-18T10:48:30;8.93;;;2.50;;
62582;SDS011;48641;51.676;5.808;2023-11-18T10:50:55;7.55;;;2.22;;
62582;SDS011;48641;51.676;5.808;2023-11-18T10:53:24;5.10;;;1.70;;
62582;SDS011;48641;51.676;5.808;2023-11-18T10:55:51;7.70;;;2.85;;
62582;SDS011;48641;51.676;5.808;2023-11-18T10:58:17;5.50;;;2.00;;
62582;SDS011;48641;51.676;5.808;2023-11-18T11:00:50;6.07;;;1.88;;
62582;SDS011;48641;51.676;5.808;2023-11-18T11:03:20;6.90;;;1.90;;
62582;SDS011;48641;51.676;5.808;2023-11-18T11:05:50;7.80;;;2.15;;
62582;SDS011;48641;51.676;5.808;2023-11-18T11:08:17;6.47;;;1.90;;
62582;SDS011;48641;51.676;5.808;2023-11-18T11:10:44;7.15;;;2.05;;
62582;SDS011;48641;51.676;5.808;2023-11-18T11:13:09;6.80;;;1.98;;
62582;SDS011;48641;51.676;5.808;2023-11-18T11:15:42;8.32;;;2.13;;
62582;SDS011;48641;51.676;5.808;2023-11-18T11:18:14;8.65;;;2.35;;
62582;SDS011;48641;51.676;5.808;2023-11-18T11:20:57;8.27;;;2.58;;
62582;SDS011;48641;51.676;5.808;2023-11-18T11:23:49;6.45;;;1.88;;
62582;SDS011;48641;51.676;5.808;2023-11-18T11:34:55;5.95;;;1.80;;
62582;SDS011;48641;51.676;5.808;2023-11-18T11:37:30;9.10;;;1.85;;
62582;SDS011;48641;51.676;5.808;2023-11-18T11:39:59;9.13;;;1.52;;
62582;SDS011;48641;51.676;5.808;2023-11-18T11:42:29;9.50;;;2.10;;
62582;SDS011;48641;51.676;5.808;2023-11-18T11:44:57;7.88;;;1.90;;
62582;SDS011;48641;51.676;5.808;2023-11-18T11:47:24;6.85;;;1.95;;
62582;SDS011;48641;51.676;5.808;2023-11-18T11:49:58;5.22;;;1.70;;
62582;SDS011;48641;51.676;5.808;2023-11-18T11:52:58;7.80;;;1.88;;
62582;SDS011;48641;51.676;5.808;2023-11-18T11:55:38;8.23;;;1.85;;
62582;SDS011;48641;51.676;5.808;2023-11-18T11:58:25;6.32;;;1.90;;
62582;SDS011;48641;51.676;5.808;2023-11-18T12:00:51;6.45;;;1.70;;
62582;SDS011;48641;51.676;5.808;2023-11-18T12:03:19;5.50;;;1.80;;
62582;SDS011;48641;51.676;5.808;2023-11-18T12:05:49;5.00;;;1.50;;
62582;SDS011;48641;51.676;5.808;2023-11-18T12:08:21;5.18;;;1.60;;
62582;SDS011;48641;51.676;5.808;2023-11-18T12:10:54;5.93;;;1.55;;
62582;SDS011;48641;51.676;5.808;2023-11-18T12:13:23;3.35;;;1.35;;
62582;SDS011;48641;51.676;5.808;2023-11-18T12:15:55;4.50;;;1.53;;
62582;SDS011;48641;51.676;5.808;2023-11-18T12:18:28;4.88;;;1.55;;
62582;SDS011;48641;51.676;5.808;2023-11-18T12:20:57;5.70;;;1.77;;
62582;SDS011;48641;51.676;5.808;2023-11-18T12:23:27;3.67;;;1.25;;
62582;SDS011;48641;51.676;5.808;2023-11-18T12:25:53;6.70;;;1.50;;
62582;SDS011;48641;51.676;5.808;2023-11-18T12:28:29;4.38;;;1.55;;
62582;SDS011;48641;51.676;5.808;2023-11-18T12:31:02;4.38;;;1.50;;
62582;SDS011;48641;51.676;5.808;2023-11-18T12:39:14;4.70;;;1.50;;
62582;SDS011;48641;51.676;5.808;2023-11-18T12:42:05;3.50;;;1.40;;
62582;SDS011;48641;51.676;5.808;2023-11-18T12:47:17;4.05;;;1.52;;
62582;SDS011;48641;51.676;5.808;2023-11-18T12:49:53;3.83;;;1.23;;
62582;SDS011;48641;51.676;5.808;2023-11-18T12:52:21;5.13;;;1.53;;
62582;SDS011;48641;51.676;5.808;2023-11-18T12:54:48;2.63;;;1.08;;
62582;SDS011;48641;51.676;5.808;2023-11-18T12:57:19;4.45;;;1.25;;
62582;SDS011;48641;51.676;5.808;2023-11-18T12:59:48;5.22;;;1.40;;
62582;SDS011;48641;51.676;5.808;2023-11-18T13:02:15;6.05;;;1.40;;
62582;SDS011;48641;51.676;5.808;2023-11-18T13:04:44;6.53;;;1.50;;
62582;SDS011;48641;51.676;5.808;2023-11-18T13:07:12;12.77;;;2.40;;
62582;SDS011;48641;51.676;5.808;2023-11-18T13:09:39;12.95;;;2.28;;
62582;SDS011;48641;51.676;5.808;2023-11-18T13:12:07;8.15;;;1.75;;
62582;SDS011;48641;51.676;5.808;2023-11-18T13:14:34;8.30;;;1.85;;
62582;SDS011;48641;51.676;5.808;2023-11-18T13:17:04;6.80;;;1.70;;
62582;SDS011;48641;51.676;5.808;2023-11-18T13:19:34;9.07;;;2.20;;
62582;SDS011;48641;51.676;5.808;2023-11-18T13:22:04;7.50;;;1.70;;
62582;SDS011;48641;51.676;5.808;2023-11-18T13:24:37;8.20;;;1.40;;
62582;SDS011;48641;51.676;5.808;2023-11-18T13:27:09;10.90;;;1.80;;
62582;SDS011;48641;51.676;5.808;2023-11-18T13:29:39;10.18;;;1.83;;
62582;SDS011;48641;51.676;5.808;2023-11-18T13:32:10;8.52;;;1.65;;
62582;SDS011;48641;51.676;5.808;2023-11-18T13:34:37;9.18;;;1.75;;
62582;SDS011;48641;51.676;5.808;2023-11-18T13:37:06;9.00;;;2.08;;
62582;SDS011;48641;51.676;5.808;2023-11-18T13:39:33;6.93;;;2.25;;
62582;SDS011;48641;51.676;5.808;2023-11-18T13:42:17;6.18;;;1.52;;
62582;SDS011;48641;51.676;5.808;2023-11-18T13:44:53;5.72;;;1.55;;
62582;SDS011;48641;51.676;5.808;2023-11-18T13:47:25;8.23;;;1.17;;
62582;SDS011;48641;51.676;5.808;2023-11-18T13:49:53;6.03;;;1.30;;
62582;SDS011;48641;51.676;5.808;2023-11-18T13:52:19;6.35;;;1.70;;
62582;SDS011;48641;51.676;5.808;2023-11-18T13:54:46;5.07;;;1.42;;
62582;SDS011;48641;51.676;5.808;2023-11-18T13:57:12;5.82;;;1.10;;
62582;SDS011;48641;51.676;5.808;2023-11-18T13:59:38;6.00;;;1.50;;
62582;SDS011;48641;51.676;5.808;2023-11-18T14:02:04;6.28;;;1.10;;
62582;SDS011;48641;51.676;5.808;2023-11-18T14:04:31;4.47;;;1.02;;
62582;SDS011;48641;51.676;5.808;2023-11-18T14:07:02;5.72;;;1.15;;
62582;SDS011;48641;51.676;5.808;2023-11-18T14:09:34;5.80;;;1.30;;
62582;SDS011;48641;51.676;5.808;2023-11-18T14:12:07;5.50;;;1.15;;
62582;SDS011;48641;51.676;5.808;2023-11-18T14:14:33;5.50;;;1.35;;
62582;SDS011;48641;51.676;5.808;2023-11-18T14:16:59;4.50;;;1.05;;
62582;SDS011;48641;51.676;5.808;2023-11-18T14:19:26;5.40;;;1.23;;
62582;SDS011;48641;51.676;5.808;2023-11-18T14:21:52;4.00;;;1.08;;
62582;SDS011;48641;51.676;5.808;2023-11-18T14:24:19;3.47;;;1.10;;
62582;SDS011;48641;51.676;5.808;2023-11-18T14:26:46;4.30;;;1.10;;
62582;SDS011;48641;51.676;5.808;2023-11-18T14:29:12;5.10;;;1.30;;
62582;SDS011;48641;51.676;5.808;2023-11-18T14:31:37;2.95;;;0.90;;
62582;SDS011;48641;51.676;5.808;2023-11-18T14:34:04;5.60;;;1.25;;
62582;SDS011;48641;51.676;5.808;2023-11-18T14:36:30;4.57;;;1.20;;
62582;SDS011;48641;51.676;5.808;2023-11-18T14:38:56;3.45;;;1.10;;
62582;SDS011;48641;51.676;5.808;2023-11-18T14:41:24;5.20;;;1.05;;
62582;SDS011;48641;51.676;5.808;2023-11-18T14:43:52;3.03;;;0.95;;
62582;SDS011;48641;51.676;5.808;2023-11-18T14:46:18;4.45;;;1.10;;
62582;SDS011;48641;51.676;5.808;2023-11-18T14:48:44;3.35;;;0.90;;
62582;SDS011;48641;51.676;5.808;2023-11-18T14:51:10;5.75;;;1.13;;
62582;SDS011;48641;51.676;5.808;2023-11-18T14:53:35;3.88;;;1.00;;
62582;SDS011;48641;51.676;5.808;2023-11-18T14:56:02;4.53;;;1.00;;
62582;SDS011;48641;51.676;5.808;2023-11-18T14:58:30;2.70;;;0.80;;
62582;SDS011;48641;51.676;5.808;2023-11-18T15:00:57;2.53;;;0.93;;
62582;SDS011;48641;51.676;5.808;2023-11-18T15:03:24;2.95;;;0.93;;
62582;SDS011;48641;51.676;5.808;2023-11-18T15:05:50;3.00;;;1.33;;
62582;SDS011;48641;51.676;5.808;2023-11-18T15:08:15;3.22;;;0.80;;
62582;SDS011;48641;51.676;5.808;2023-11-18T15:10:41;3.42;;;0.98;;
62582;SDS011;48641;51.676;5.808;2023-11-18T15:13:09;2.72;;;0.80;;
62582;SDS011;48641;51.676;5.808;2023-11-18T15:15:40;3.45;;;0.95;;
62582;SDS011;48641;51.676;5.808;2023-11-18T15:18:07;3.97;;;1.02;;
62582;SDS011;48641;51.676;5.808;2023-11-18T15:20:39;5.47;;;0.80;;
62582;SDS011;48641;51.676;5.808;2023-11-18T15:23:08;2.22;;;0.80;;
62582;SDS011;48641;51.676;5.808;2023-11-18T15:25:37;1.98;;;0.60;;
62582;SDS011;48641;51.676;5.808;2023-11-18T15:28:04;4.75;;;0.80;;
62582;SDS011;48641;51.676;5.808;2023-11-18T15:30:34;3.72;;;0.90;;
62582;SDS011;48641;51.676;5.808;2023-11-18T15:33:04;3.67;;;1.00;;
62582;SDS011;48641;51.676;5.808;2023-11-18T15:35:33;4.45;;;1.17;;
62582;SDS011;48641;51.676;5.808;2023-11-18T15:38:08;5.03;;;1.13;;